Latest Observation

42 Stations

15 Minute Data | America/Los_Angeles
as of 9/5/26 4:56 PM PDT
Station Date Time Temp (°F) RH (%) Dew Pt (°F) Wind Spd (mph) Wind Dir (°) Wind Gust (mph) Latest Rain (In) Daily Rain (In) Daily Min Temp (°F) Daily Max Temp (°F) Daily Max Wind (mph)
Elk Mt. Farm 8/13/26 1500 85.6   7.4 - - - - - - - 51.4   1.1 85.6   7.4 -
Upper Lake 9/5/26 1645 77.8   3.2 32   1 45.3   2.1 4.7 S | 179 12.2   2.7 0.00 0.00 40.8   1.3 78.3   2.9 13.8   1.1
Scotts Valley 9/5/26 1645 77.4   1.3 34   1 46.5   1.8 2.7 WSW | 247 7.9   0.3 0.00 0.00 36.4   1.6 80.9   3.6 12.1   0.1
Scotts Valley-South (Bella Vista) 9/5/26 1645 76.8   2.0 30   3 43.3   4.3 4.9 S | 183 10.2   5.7 0.00 0.00 41.3   2.4 77.8   2.3 11.8   0.5
Kelseyville 9/5/26 1645 77.6   4.4 32   2 45.8   2.1 4.7 WSW | 255 12.3   2.8 0.00 0.00 40.6   0.5 78.4   4.1 19.1   4.8
Kelseyville Remote 9/5/26 1645 78.0   4.0 24   2 38.6   1.2 - - - 0.00 0.00 42.2   0.1 79.7   4.8 -
Kelseyville (Clark Drive) 9/5/26 1645 79.2   4.3 - - - - - 0.00 0.00 38.4   2.8 80.4   4.6 -
Kelsey Bench (Oaklea) 9/5/26 1645 76.2   3.2 30   1 42.4   3.9 6.1 SW | 217 12.7   2.1 0.00 0.00 44.9   1.1 77.9   3.8 12.8   2.7
Smith Lane (Kelseyville-South) 9/5/26 1645 79.2   2.8 31   3 45.9   4.9 5.9 SW | 219 11.6   2.8 0.00 0.00 39.1   0.1 80.9   3.5 14.4   1.1
Bell Hill-West 9/5/26 1645 76.7   3.2 38   2 49.4   4.6 9.1 SSW | 200 17.5   8.7 0.00 0.00 41.9   0.8 78.4   4.1 17.5   1.7
High Valley Ridgeline (Brassfield) 9/3/26 1430 64.3   0.5 52   2 46.4   1.6 12.2 WSW | 242 17.9   7.4 0.00 0.01 55.0   3.7 66.3   0.1 20.5   5.3
Wight Way (Adobe Creek) 9/5/26 1600 86.0   5.0 21   2 41.6   1.9 2.2 WSW | 243 7.6   0.4 0.00 0.00 38.5   0.9 86.1   4.4 14.0   0.0
Ridgeline Top (Brassfield) 9/3/26 1430 66.6   0.4 - - - - - - - 54.8   3.7 69.7   1.1 -
Ridgeline Low (Brassfield) 9/3/26 1430 66.8   0.7 - - - - - - - 56.8   4.6 67.8   0.9 -
Long Valley (Shannon) 6/29/26 1400 84.9   4.6 25   1 44.9   3.2 2.9 ENE | 75 10.2   0.4 0.00 0.00 46.4   0.4 86.9   6.5 13.7   1.8
High Valley Winery 9/3/26 1430 65.6   2.0 49   1 45.9   1.2 9.6 WSW | 238 17.0   7.0 0.00 0.01 57.3   4.2 67.3   2.2 17.0   1.1
Round Mtn Rd. 9/5/26 0215 48.6   0.8 - - - - - - - 47.2   2.0 49.3   2.3 -
Circle O 9/5/26 1645 76.2   4.4 - - - - - - - 41.4   2.5 77.2   3.8 -
Robertsbridge Vineyards 9/5/26 1645 77.1   2.8 28   1 41.7   3.4 - - - - - 41.2   2.5 79.2   4.1 -
Urgency Vineyard 9/5/26 1645 76.7   2.8 27   2 40.4   4.1 4.1 SSW | 205 10.2   3.1 0.00 0.00 39.5   3.6 78.6   4.3 11.8   0.4
Red Hills (Beckstoffer) 9/5/26 1645 76.1   3.2 27   0 40.0   2.7 - - - 0.00 0.00 35.6   5.8 79.3   4.1 -
Winters (Shannon) 9/5/26 1645 75.7   3.6 25   0 37.8   3.0 3.6 WSW | 246 10.2   4.0 0.00 0.00 34.6   2.5 77.1   4.4 10.5   4.4
Secret Pond (Shannon) 9/5/26 1645 73.4   2.8 27   0 37.9   2.3 5.4 SW | 226 10.7   3.1 0.00 0.00 39.6   1.8 75.5   3.4 12.6   3.8
Rolling Knolls (Shannon) 9/5/26 1645 77.1   3.4 26   2 39.8   0.8 4.0 SSW | 195 9.4   3.2 0.00 0.00 40.6   4.1 78.6   4.6 11.9   1.1
Lower Lake 9/5/26 1645 75.6   3.3 29   0 41.0   2.4 3.0 SE | 124 12.1   4.4 0.00 0.00 45.7   1.3 78.0   5.2 17.1   2.6
Adamson Ranch 9/5/26 1645 77.4   2.9 28   2 41.5   0.5 9.7 SSE | 167 15.6   10.1 0.00 0.00 40.2   0.4 79.9   3.5 16.4   6.4
Middletown (Diamond D) 9/5/26 1645 74.6   2.0 36   7 45.9   2.8 4.8 N | 355 13.6   2.3 0.00 0.00 43.7   1.5 78.1   2.6 15.9   2.4
Middletown-West (Domaine Helena) 9/5/26 1645 76.1   1.2 33   6 45.3   3.0 10.0 SSW | 211 16.5   2.5 0.00 0.00 39.4   0.5 79.1   2.7 17.6   1.5
Middletown-South 9/5/26 1645 75.0   1.9 30   8 41.9   4.4 5.4 WSW | 241 13.7   2.3 0.00 0.00 44.6   0.6 77.9   1.9 17.1   4.1
Jim Davis (Langtry) 9/5/26 1645 77.3   2.4 33   5 46.0   1.6 7.9 WSW | 240 15.0   5.3 0.00 0.00 47.5   1.5 78.8   3.5 16.2   2.6
Napa Valley Basin 9/5/26 1645 80.0   2.1 28   7 43.9   3.9 6.0 WNW | 292 13.1   1.2 0.00 0.00 38.8   0.6 81.3   3.0 17.5   3.3
Lower Bohn 9/5/26 1645 78.9   2.0 29   4 44.1   1.9 7.5 SE | 128 15.6   1.8 0.00 0.00 38.1   1.2 80.9   3.1 17.4   3.1
Upper Bohn-North 9/5/26 1645 78.7   0.7 25   3 40.1   2.8 5.7 SW | 218 11.5   4.4 0.00 0.00 46.3   1.5 82.5   3.3 11.8   4.9
Snell Peak Blk#9 9/5/26 1645 77.4   1.2 26   4 39.9   2.8 5.5 SSW | 212 11.3   0.9 0.00 0.00 51.4   3.2 80.5   3.1 14.7   1.2
Coyote Lake West 9/5/26 1645 78.4   2.0 32   4 46.2   1.4 7.9 WSW | 245 16.5   4.8 0.00 0.00 46.8   1.9 80.2   3.2 16.5   2.4
Coyote Lake Northeast 9/5/26 1645 79.6   1.9 33   4 48.1   1.4 - - - - - 47.0   0.5 81.2   3.3 -
Coyote Lake East 9/5/26 1645 79.8   1.6 31   3 46.3   1.4 - - - - - 40.3   0.4 81.2   3.0 -
Morgan Valley 9/5/26 1645 72.2   2.4 37   7 44.6   2.4 6.7 SSE | 166 13.7   0.0 0.00 0.00 52.0   3.9 74.0   4.1 18.9   4.6
Mine Pit North 9/5/26 1645 75.5   1.5 32   1 43.7   2.3 11.8 SSW | 196 23.8   7.5 - - 48.3   2.1 79.2   1.7 23.8   5.2
Mine Pit South 9/5/26 1645 75.8   1.9 29   1 41.1   0.8 8.7 SW | 230 17.5   4.1 0.00 0.00 50.9   0.7 78.0   1.2 22.0   0.4
Cow Mountain 9/5/26 1645 62.0   3.2 - - 13.1 WSW | 256 21.9   3.1 0.00 0.00 51.4   7.8 67.6   7.2 24.3   1.8
Ukiah-SE (Ruddick) 9/5/26 1645 77.6   4.8 36   1 48.6   4.9 8.0 W | 274 13.8   4.9 0.00 0.00 41.4   0.7 80.7   4.9 16.4   3.0
Max     86.0 38 49.4 13.1 - 23.8 0.00 0.00 52.0 86.1 24.3
Avg     76.8 30 43.3 6.4 - 13.5 0.00 - - - -
Min     62.0 21 37.8 2.2 - 7.6 0.00 0.00 34.6 67.6 10.5